Albany, New Hampshire
Current Conditions -  °F | °C
As of 7:17 AM on Tuesday 27 Jan 2015 (Local Time) from KIZG Reporting Station
Light Snow Light Snow  
Wind Chill: -3°   Ceiling: 1100
Heat Index: 12°   Visibility: 0.75mi
Dew Point:   Wind: 13mph
Humidity: 80%   Direction: 20°NNE
Pressure: 29.8"   Gusts: 25mph
Location:  43.9735°N, 71.2576°W
Report Text: KIZG 271217Z AUTO 02011G22KT 3/4SM -SN VV011 M11/M14 A2980 RMK AO2 P0001 T11111139
Loading
Personal Weather Stations






























Interactive Weather Map New forecast layout! Learn more

10-Day Weather Forecast

Advertisements
Track Severe Weather on mobile